KDEC/DEC METAR and TAF weather

Enter ICAO airport designator
Station Type Date Time Source
KDEC METAR 2021/05/14 03:54 UTC NOAA

KDEC 140354Z AUTO 00000KT 10SM CLR 10/01 A3033 RMK AO2 SLP271 T01000011


Station Type Date Time Source
KDEC Decoded METAR 2021/05/14 03:54 UTC NOAA

DECATUR AIRPORT, IL, United States (KDEC) 39-50N 88-52W 207M
May 13, 2021 - 11:54 PM EDT / 2021.05.14 0354 UTC
Wind: Calm:0
Visibility: 10 mile(s):0
Sky conditions: clear
Temperature: 50.0 F (10.0 C)
Dew Point: 34.0 F (1.1 C)
Relative Humidity: 53%
Pressure (altimeter): 30.33 in. Hg (1027 hPa)
ob: KDEC 140354Z AUTO 00000KT 10SM CLR 10/01 A3033 RMK AO2 SLP271 T01000011
cycle: 4

Station Type Date Time Source
KDEC TAF 2021/05/13 18:22 UTC NOAA

TAF KDEC 131720Z 1318/1418 VRB04KT P6SM SCT070

Example: see airport list